sensor_id;sensor_type;location;lat;lon;timestamp;temperature;humidity
7214;DHT22;3648;50.614;13.830;2023-01-30T00:01:40;-3.50;99.90
7214;DHT22;3648;50.614;13.830;2023-01-30T00:04:09;-3.50;99.90
7214;DHT22;3648;50.614;13.830;2023-01-30T00:06:37;-3.50;99.90
7214;DHT22;3648;50.614;13.830;2023-01-30T00:09:04;-3.40;99.90
7214;DHT22;3648;50.614;13.830;2023-01-30T00:11:31;-3.40;99.90
7214;DHT22;3648;50.614;13.830;2023-01-30T00:13:59;-3.50;99.90
7214;DHT22;3648;50.614;13.830;2023-01-30T00:16:26;-3.50;99.90
7214;DHT22;3648;50.614;13.830;2023-01-30T00:18:53;-3.60;99.90
7214;DHT22;3648;50.614;13.830;2023-01-30T00:21:20;-3.60;99.90
7214;DHT22;3648;50.614;13.830;2023-01-30T00:23:48;-3.60;99.90
7214;DHT22;3648;50.614;13.830;2023-01-30T00:26:14;-3.60;99.90
7214;DHT22;3648;50.614;13.830;2023-01-30T00:28:42;-3.60;99.90
7214;DHT22;3648;50.614;13.830;2023-01-30T00:31:10;-3.70;99.90
7214;DHT22;3648;50.614;13.830;2023-01-30T00:33:37;-3.70;99.90
7214;DHT22;3648;50.614;13.830;2023-01-30T00:36:05;-3.70;99.90
7214;DHT22;3648;50.614;13.830;2023-01-30T00:38:33;-3.80;99.90
7214;DHT22;3648;50.614;13.830;2023-01-30T00:41:00;-3.80;99.90
7214;DHT22;3648;50.614;13.830;2023-01-30T00:43:27;-3.80;99.90
7214;DHT22;3648;50.614;13.830;2023-01-30T00:46:18;-3.80;99.90
7214;DHT22;3648;50.614;13.830;2023-01-30T00:49:04;-3.80;99.90
7214;DHT22;3648;50.614;13.830;2023-01-30T00:51:31;-3.80;99.90
7214;DHT22;3648;50.614;13.830;2023-01-30T00:53:58;-3.80;99.90
7214;DHT22;3648;50.614;13.830;2023-01-30T00:56:25;-3.70;99.90
7214;DHT22;3648;50.614;13.830;2023-01-30T00:58:52;-3.70;99.90
7214;DHT22;3648;50.614;13.830;2023-01-30T01:01:20;-3.60;99.90
7214;DHT22;3648;50.614;13.830;2023-01-30T01:03:47;-3.60;99.90
7214;DHT22;3648;50.614;13.830;2023-01-30T01:06:14;-3.50;99.90
7214;DHT22;3648;50.614;13.830;2023-01-30T01:08:41;-3.50;99.90
7214;DHT22;3648;50.614;13.830;2023-01-30T01:11:08;-3.40;99.90
7214;DHT22;3648;50.614;13.830;2023-01-30T01:13:35;-3.40;99.90
7214;DHT22;3648;50.614;13.830;2023-01-30T01:16:02;-3.30;99.90
7214;DHT22;3648;50.614;13.830;2023-01-30T01:18:38;-3.30;99.90
7214;DHT22;3648;50.614;13.830;2023-01-30T01:21:05;-3.20;99.90
7214;DHT22;3648;50.614;13.830;2023-01-30T01:23:32;-3.10;99.90
7214;DHT22;3648;50.614;13.830;2023-01-30T01:26:00;-3.10;99.90
7214;DHT22;3648;50.614;13.830;2023-01-30T01:28:27;-3.10;99.90
7214;DHT22;3648;50.614;13.830;2023-01-30T01:30:54;-3.00;99.90
7214;DHT22;3648;50.614;13.830;2023-01-30T01:33:25;-3.00;99.90
7214;DHT22;3648;50.614;13.830;2023-01-30T01:35:56;-3.00;99.90
7214;DHT22;3648;50.614;13.830;2023-01-30T01:38:23;-3.00;99.90
7214;DHT22;3648;50.614;13.830;2023-01-30T01:40:50;-2.90;99.90
7214;DHT22;3648;50.614;13.830;2023-01-30T01:43:31;-2.90;99.90
7214;DHT22;3648;50.614;13.830;2023-01-30T01:46:01;-2.90;99.90
7214;DHT22;3648;50.614;13.830;2023-01-30T01:48:32;-2.90;99.90
7214;DHT22;3648;50.614;13.830;2023-01-30T01:51:04;-2.90;99.90
7214;DHT22;3648;50.614;13.830;2023-01-30T01:53:35;-2.90;99.90
7214;DHT22;3648;50.614;13.830;2023-01-30T01:56:06;-2.80;99.90
7214;DHT22;3648;50.614;13.830;2023-01-30T01:58:36;-2.80;99.90
7214;DHT22;3648;50.614;13.830;2023-01-30T02:01:06;-2.70;99.90
7214;DHT22;3648;50.614;13.830;2023-01-30T02:03:38;-2.70;99.90
7214;DHT22;3648;50.614;13.830;2023-01-30T02:06:09;-2.70;99.90
7214;DHT22;3648;50.614;13.830;2023-01-30T02:08:38;-2.70;99.90
7214;DHT22;3648;50.614;13.830;2023-01-30T02:11:09;-2.70;99.90
7214;DHT22;3648;50.614;13.830;2023-01-30T02:13:37;-2.70;99.90
7214;DHT22;3648;50.614;13.830;2023-01-30T02:16:07;-2.60;99.90
7214;DHT22;3648;50.614;13.830;2023-01-30T02:18:37;-2.60;99.90
7214;DHT22;3648;50.614;13.830;2023-01-30T02:21:33;-2.60;99.90
7214;DHT22;3648;50.614;13.830;2023-01-30T02:24:43;-2.60;99.90
7214;DHT22;3648;50.614;13.830;2023-01-30T02:27:26;-2.50;99.90
7214;DHT22;3648;50.614;13.830;2023-01-30T02:30:19;-2.50;99.90
7214;DHT22;3648;50.614;13.830;2023-01-30T02:32:58;-2.50;99.90
7214;DHT22;3648;50.614;13.830;2023-01-30T02:35:33;-2.50;99.90
7214;DHT22;3648;50.614;13.830;2023-01-30T02:38:11;-2.50;99.90
7214;DHT22;3648;50.614;13.830;2023-01-30T02:40:50;-2.40;99.90
7214;DHT22;3648;50.614;13.830;2023-01-30T02:43:23;-2.40;99.90
7214;DHT22;3648;50.614;13.830;2023-01-30T02:45:58;-2.50;99.90
7214;DHT22;3648;50.614;13.830;2023-01-30T02:48:32;-2.40;99.90
7214;DHT22;3648;50.614;13.830;2023-01-30T02:51:03;-2.30;99.90
7214;DHT22;3648;50.614;13.830;2023-01-30T02:53:31;-2.20;99.90
7214;DHT22;3648;50.614;13.830;2023-01-30T02:55:59;-2.20;99.90
7214;DHT22;3648;50.614;13.830;2023-01-30T02:58:28;-2.10;99.90
7214;DHT22;3648;50.614;13.830;2023-01-30T03:01:33;-2.10;99.90
7214;DHT22;3648;50.614;13.830;2023-01-30T03:04:19;-2.00;99.90
7214;DHT22;3648;50.614;13.830;2023-01-30T03:07:06;-2.00;99.90
7214;DHT22;3648;50.614;13.830;2023-01-30T03:09:46;-2.00;99.90
7214;DHT22;3648;50.614;13.830;2023-01-30T03:12:20;-2.00;99.90
7214;DHT22;3648;50.614;13.830;2023-01-30T03:14:54;-2.00;99.90
7214;DHT22;3648;50.614;13.830;2023-01-30T03:17:22;-2.00;99.90
7214;DHT22;3648;50.614;13.830;2023-01-30T03:19:54;-2.00;99.90
7214;DHT22;3648;50.614;13.830;2023-01-30T03:22:21;-2.00;99.90
7214;DHT22;3648;50.614;13.830;2023-01-30T03:24:51;-1.90;99.90
7214;DHT22;3648;50.614;13.830;2023-01-30T03:27:19;-1.90;99.90
7214;DHT22;3648;50.614;13.830;2023-01-30T03:29:47;-1.80;99.90
7214;DHT22;3648;50.614;13.830;2023-01-30T03:32:14;-1.80;99.90
7214;DHT22;3648;50.614;13.830;2023-01-30T03:34:41;-1.80;99.90
7214;DHT22;3648;50.614;13.830;2023-01-30T03:37:09;-1.80;99.90
7214;DHT22;3648;50.614;13.830;2023-01-30T03:39:37;-1.80;99.90
7214;DHT22;3648;50.614;13.830;2023-01-30T03:42:04;-1.90;99.90
7214;DHT22;3648;50.614;13.830;2023-01-30T03:44:31;-1.90;99.90
7214;DHT22;3648;50.614;13.830;2023-01-30T03:46:58;-1.90;99.90
7214;DHT22;3648;50.614;13.830;2023-01-30T03:49:25;-1.80;99.90
7214;DHT22;3648;50.614;13.830;2023-01-30T03:51:52;-1.70;99.90
7214;DHT22;3648;50.614;13.830;2023-01-30T03:54:20;-1.70;99.90
7214;DHT22;3648;50.614;13.830;2023-01-30T03:56:47;-1.80;99.90
7214;DHT22;3648;50.614;13.830;2023-01-30T03:59:14;-1.80;99.90
7214;DHT22;3648;50.614;13.830;2023-01-30T04:01:41;-1.70;99.90
7214;DHT22;3648;50.614;13.830;2023-01-30T04:04:08;-1.70;99.90
7214;DHT22;3648;50.614;13.830;2023-01-30T04:06:35;-1.70;99.90
7214;DHT22;3648;50.614;13.830;2023-01-30T04:09:02;-1.70;99.90
7214;DHT22;3648;50.614;13.830;2023-01-30T04:11:31;-1.70;99.90
7214;DHT22;3648;50.614;13.830;2023-01-30T04:13:58;-1.60;99.90
7214;DHT22;3648;50.614;13.830;2023-01-30T04:16:25;-1.70;99.90
7214;DHT22;3648;50.614;13.830;2023-01-30T04:18:53;-1.60;99.90
7214;DHT22;3648;50.614;13.830;2023-01-30T04:21:20;-1.60;99.90
7214;DHT22;3648;50.614;13.830;2023-01-30T04:23:47;-1.60;99.90
7214;DHT22;3648;50.614;13.830;2023-01-30T04:26:14;-1.60;99.90
7214;DHT22;3648;50.614;13.830;2023-01-30T04:28:42;-1.60;99.90
7214;DHT22;3648;50.614;13.830;2023-01-30T04:31:10;-1.60;99.90
7214;DHT22;3648;50.614;13.830;2023-01-30T04:33:37;-1.60;99.90
7214;DHT22;3648;50.614;13.830;2023-01-30T04:36:06;-1.50;1.00
7214;DHT22;3648;50.614;13.830;2023-01-30T04:38:34;-1.50;1.00
7214;DHT22;3648;50.614;13.830;2023-01-30T04:41:01;-1.50;1.00
7214;DHT22;3648;50.614;13.830;2023-01-30T04:43:28;-1.50;1.00
7214;DHT22;3648;50.614;13.830;2023-01-30T04:45:57;-1.40;99.90
7214;DHT22;3648;50.614;13.830;2023-01-30T04:48:24;-1.40;99.90
7214;DHT22;3648;50.614;13.830;2023-01-30T04:50:53;-1.40;99.90
7214;DHT22;3648;50.614;13.830;2023-01-30T04:53:21;-1.30;99.90
7214;DHT22;3648;50.614;13.830;2023-01-30T04:55:48;-1.30;99.90
7214;DHT22;3648;50.614;13.830;2023-01-30T04:58:15;-1.30;99.90
7214;DHT22;3648;50.614;13.830;2023-01-30T05:00:43;-1.30;99.90
7214;DHT22;3648;50.614;13.830;2023-01-30T05:03:12;-1.20;99.90
7214;DHT22;3648;50.614;13.830;2023-01-30T05:05:39;-1.20;99.90
7214;DHT22;3648;50.614;13.830;2023-01-30T05:08:06;-1.20;99.90
7214;DHT22;3648;50.614;13.830;2023-01-30T05:10:33;-1.10;99.90
7214;DHT22;3648;50.614;13.830;2023-01-30T05:13:01;-1.10;99.90
7214;DHT22;3648;50.614;13.830;2023-01-30T05:15:28;-1.10;99.90
7214;DHT22;3648;50.614;13.830;2023-01-30T05:17:56;-1.10;99.90
7214;DHT22;3648;50.614;13.830;2023-01-30T05:20:25;-1.00;99.90
7214;DHT22;3648;50.614;13.830;2023-01-30T05:22:52;-1.00;99.90
7214;DHT22;3648;50.614;13.830;2023-01-30T05:25:19;-1.00;99.90
7214;DHT22;3648;50.614;13.830;2023-01-30T05:27:47;-1.00;99.90
7214;DHT22;3648;50.614;13.830;2023-01-30T05:30:14;-0.90;99.90
7214;DHT22;3648;50.614;13.830;2023-01-30T05:32:41;-0.90;99.90
7214;DHT22;3648;50.614;13.830;2023-01-30T05:35:09;-0.90;99.90
7214;DHT22;3648;50.614;13.830;2023-01-30T05:37:41;-0.80;99.90
7214;DHT22;3648;50.614;13.830;2023-01-30T05:40:09;-0.80;99.90
7214;DHT22;3648;50.614;13.830;2023-01-30T05:42:36;-0.80;99.90
7214;DHT22;3648;50.614;13.830;2023-01-30T05:45:03;-0.70;99.90
7214;DHT22;3648;50.614;13.830;2023-01-30T05:47:31;-0.70;99.90
7214;DHT22;3648;50.614;13.830;2023-01-30T05:49:59;-0.70;99.90
7214;DHT22;3648;50.614;13.830;2023-01-30T05:52:26;-0.70;99.90
7214;DHT22;3648;50.614;13.830;2023-01-30T05:54:54;-0.70;99.90
7214;DHT22;3648;50.614;13.830;2023-01-30T05:57:22;-0.70;99.90
7214;DHT22;3648;50.614;13.830;2023-01-30T05:59:49;-0.60;99.90
7214;DHT22;3648;50.614;13.830;2023-01-30T06:02:16;-0.60;99.90
7214;DHT22;3648;50.614;13.830;2023-01-30T06:04:43;-0.60;99.90
7214;DHT22;3648;50.614;13.830;2023-01-30T06:07:10;-0.60;99.90
7214;DHT22;3648;50.614;13.830;2023-01-30T06:09:37;-0.60;99.90
7214;DHT22;3648;50.614;13.830;2023-01-30T06:12:06;-0.60;99.90
7214;DHT22;3648;50.614;13.830;2023-01-30T06:14:34;-0.50;99.90
7214;DHT22;3648;50.614;13.830;2023-01-30T06:17:00;-0.50;99.90
7214;DHT22;3648;50.614;13.830;2023-01-30T06:19:27;-0.50;99.90
7214;DHT22;3648;50.614;13.830;2023-01-30T06:21:54;-0.50;99.90
7214;DHT22;3648;50.614;13.830;2023-01-30T06:24:21;-0.50;99.90
7214;DHT22;3648;50.614;13.830;2023-01-30T06:26:49;-0.50;99.90
7214;DHT22;3648;50.614;13.830;2023-01-30T06:29:17;-0.40;99.90
7214;DHT22;3648;50.614;13.830;2023-01-30T06:31:44;-0.40;99.90
7214;DHT22;3648;50.614;13.830;2023-01-30T06:34:11;-0.40;99.90
7214;DHT22;3648;50.614;13.830;2023-01-30T06:36:38;-0.40;99.90
7214;DHT22;3648;50.614;13.830;2023-01-30T06:39:05;-0.30;99.90
7214;DHT22;3648;50.614;13.830;2023-01-30T06:41:32;-0.40;99.90
7214;DHT22;3648;50.614;13.830;2023-01-30T06:43:59;-0.30;99.90
7214;DHT22;3648;50.614;13.830;2023-01-30T06:46:27;-0.30;99.90
7214;DHT22;3648;50.614;13.830;2023-01-30T06:48:55;-0.30;99.90
7214;DHT22;3648;50.614;13.830;2023-01-30T06:51:22;-0.20;99.90
7214;DHT22;3648;50.614;13.830;2023-01-30T06:53:51;-0.20;99.90
7214;DHT22;3648;50.614;13.830;2023-01-30T06:56:18;-0.20;99.90
7214;DHT22;3648;50.614;13.830;2023-01-30T06:58:46;-0.10;99.90
7214;DHT22;3648;50.614;13.830;2023-01-30T07:01:12;-0.10;99.90
7214;DHT22;3648;50.614;13.830;2023-01-30T07:03:41;-0.10;99.90
7214;DHT22;3648;50.614;13.830;2023-01-30T07:06:08;0.00;99.90
7214;DHT22;3648;50.614;13.830;2023-01-30T07:08:35;0.00;1.00
7214;DHT22;3648;50.614;13.830;2023-01-30T07:11:04;0.00;99.90
7214;DHT22;3648;50.614;13.830;2023-01-30T07:13:31;0.10;99.90
7214;DHT22;3648;50.614;13.830;2023-01-30T07:15:58;0.10;99.90
7214;DHT22;3648;50.614;13.830;2023-01-30T07:18:25;0.20;99.90
7214;DHT22;3648;50.614;13.830;2023-01-30T07:20:53;0.20;99.90
7214;DHT22;3648;50.614;13.830;2023-01-30T07:23:20;0.20;99.90
7214;DHT22;3648;50.614;13.830;2023-01-30T07:25:47;0.30;99.90
7214;DHT22;3648;50.614;13.830;2023-01-30T07:28:14;0.20;99.90
7214;DHT22;3648;50.614;13.830;2023-01-30T07:30:41;0.30;99.90
7214;DHT22;3648;50.614;13.830;2023-01-30T07:33:08;0.30;99.90
7214;DHT22;3648;50.614;13.830;2023-01-30T07:35:36;0.40;99.90
7214;DHT22;3648;50.614;13.830;2023-01-30T07:38:05;0.40;99.90
7214;DHT22;3648;50.614;13.830;2023-01-30T07:40:48;0.40;99.90
7214;DHT22;3648;50.614;13.830;2023-01-30T07:43:15;0.40;99.90
7214;DHT22;3648;50.614;13.830;2023-01-30T07:45:44;0.40;99.90
7214;DHT22;3648;50.614;13.830;2023-01-30T07:48:13;0.40;99.90
7214;DHT22;3648;50.614;13.830;2023-01-30T07:50:41;0.40;99.90
7214;DHT22;3648;50.614;13.830;2023-01-30T07:53:11;0.30;99.90
7214;DHT22;3648;50.614;13.830;2023-01-30T07:55:38;0.30;99.90
7214;DHT22;3648;50.614;13.830;2023-01-30T07:58:05;0.30;99.90
7214;DHT22;3648;50.614;13.830;2023-01-30T08:00:32;0.40;99.90
7214;DHT22;3648;50.614;13.830;2023-01-30T08:02:59;0.40;99.90
7214;DHT22;3648;50.614;13.830;2023-01-30T08:05:27;0.40;99.90
7214;DHT22;3648;50.614;13.830;2023-01-30T08:07:55;0.50;99.90
7214;DHT22;3648;50.614;13.830;2023-01-30T08:10:23;0.50;99.90
7214;DHT22;3648;50.614;13.830;2023-01-30T08:12:50;0.50;1.00
7214;DHT22;3648;50.614;13.830;2023-01-30T08:15:18;0.60;1.00
7214;DHT22;3648;50.614;13.830;2023-01-30T08:17:52;0.60;1.00
7214;DHT22;3648;50.614;13.830;2023-01-30T08:20:19;0.60;1.00
7214;DHT22;3648;50.614;13.830;2023-01-30T08:22:46;0.60;1.00
7214;DHT22;3648;50.614;13.830;2023-01-30T08:25:13;0.60;99.90
7214;DHT22;3648;50.614;13.830;2023-01-30T08:27:42;0.70;1.00
7214;DHT22;3648;50.614;13.830;2023-01-30T08:30:10;0.70;1.00
7214;DHT22;3648;50.614;13.830;2023-01-30T08:32:38;0.70;1.00
7214;DHT22;3648;50.614;13.830;2023-01-30T08:35:05;0.70;1.00
7214;DHT22;3648;50.614;13.830;2023-01-30T08:37:32;0.70;1.00
7214;DHT22;3648;50.614;13.830;2023-01-30T08:39:59;0.80;1.00
7214;DHT22;3648;50.614;13.830;2023-01-30T08:42:26;0.80;1.00
7214;DHT22;3648;50.614;13.830;2023-01-30T08:44:55;0.90;1.00
7214;DHT22;3648;50.614;13.830;2023-01-30T08:47:22;0.90;1.00
7214;DHT22;3648;50.614;13.830;2023-01-30T08:49:49;0.90;99.90
7214;DHT22;3648;50.614;13.830;2023-01-30T08:52:17;1.00;99.90
7214;DHT22;3648;50.614;13.830;2023-01-30T08:54:44;1.00;99.90
7214;DHT22;3648;50.614;13.830;2023-01-30T08:57:13;1.00;1.00
7214;DHT22;3648;50.614;13.830;2023-01-30T08:59:40;1.00;99.90
7214;DHT22;3648;50.614;13.830;2023-01-30T09:02:09;1.10;1.00
7214;DHT22;3648;50.614;13.830;2023-01-30T09:04:36;1.10;1.00
7214;DHT22;3648;50.614;13.830;2023-01-30T09:07:03;1.10;99.90
7214;DHT22;3648;50.614;13.830;2023-01-30T09:09:30;1.10;1.00
7214;DHT22;3648;50.614;13.830;2023-01-30T09:11:57;1.10;1.00
7214;DHT22;3648;50.614;13.830;2023-01-30T09:14:24;1.10;1.00
7214;DHT22;3648;50.614;13.830;2023-01-30T09:16:59;1.20;1.00
7214;DHT22;3648;50.614;13.830;2023-01-30T09:19:28;1.20;1.00
7214;DHT22;3648;50.614;13.830;2023-01-30T09:21:55;1.20;1.00
7214;DHT22;3648;50.614;13.830;2023-01-30T09:24:23;1.30;1.00
7214;DHT22;3648;50.614;13.830;2023-01-30T09:26:51;1.30;1.00
7214;DHT22;3648;50.614;13.830;2023-01-30T09:29:18;1.30;1.00
7214;DHT22;3648;50.614;13.830;2023-01-30T09:31:45;1.30;1.00
7214;DHT22;3648;50.614;13.830;2023-01-30T09:34:12;1.30;1.00
7214;DHT22;3648;50.614;13.830;2023-01-30T09:36:40;1.40;1.00
7214;DHT22;3648;50.614;13.830;2023-01-30T09:39:07;1.30;1.00
7214;DHT22;3648;50.614;13.830;2023-01-30T09:41:47;1.40;1.00
7214;DHT22;3648;50.614;13.830;2023-01-30T09:44:34;1.40;1.00
7214;DHT22;3648;50.614;13.830;2023-01-30T09:47:09;1.50;1.00
7214;DHT22;3648;50.614;13.830;2023-01-30T09:49:44;1.60;1.00
7214;DHT22;3648;50.614;13.830;2023-01-30T09:52:25;1.60;1.00
7214;DHT22;3648;50.614;13.830;2023-01-30T09:54:57;1.60;1.00
7214;DHT22;3648;50.614;13.830;2023-01-30T09:57:26;1.70;1.00
7214;DHT22;3648;50.614;13.830;2023-01-30T09:59:56;1.70;1.00
7214;DHT22;3648;50.614;13.830;2023-01-30T10:02:40;1.80;1.00
7214;DHT22;3648;50.614;13.830;2023-01-30T10:05:11;1.80;1.00
7214;DHT22;3648;50.614;13.830;2023-01-30T10:07:57;1.90;1.00
7214;DHT22;3648;50.614;13.830;2023-01-30T10:10:37;1.90;1.00
7214;DHT22;3648;50.614;13.830;2023-01-30T10:13:18;1.90;1.00
7214;DHT22;3648;50.614;13.830;2023-01-30T10:15:52;2.00;1.00
7214;DHT22;3648;50.614;13.830;2023-01-30T10:18:43;2.00;1.00
7214;DHT22;3648;50.614;13.830;2023-01-30T10:21:23;2.00;1.00
7214;DHT22;3648;50.614;13.830;2023-01-30T10:24:09;2.10;1.00
7214;DHT22;3648;50.614;13.830;2023-01-30T10:26:39;2.10;1.00
7214;DHT22;3648;50.614;13.830;2023-01-30T10:29:11;2.10;1.00
7214;DHT22;3648;50.614;13.830;2023-01-30T10:31:43;2.10;1.00
7214;DHT22;3648;50.614;13.830;2023-01-30T10:34:14;2.10;1.00
7214;DHT22;3648;50.614;13.830;2023-01-30T10:36:50;2.20;1.00
7214;DHT22;3648;50.614;13.830;2023-01-30T10:39:25;2.20;1.00
7214;DHT22;3648;50.614;13.830;2023-01-30T10:42:01;2.20;1.00
7214;DHT22;3648;50.614;13.830;2023-01-30T10:44:31;2.30;1.00
7214;DHT22;3648;50.614;13.830;2023-01-30T10:47:32;2.30;1.00
7214;DHT22;3648;50.614;13.830;2023-01-30T10:50:12;2.30;1.00
7214;DHT22;3648;50.614;13.830;2023-01-30T10:52:45;2.40;1.00
7214;DHT22;3648;50.614;13.830;2023-01-30T10:55:26;2.50;1.00
7214;DHT22;3648;50.614;13.830;2023-01-30T10:58:00;2.50;1.00
7214;DHT22;3648;50.614;13.830;2023-01-30T11:00:35;2.60;1.00
7214;DHT22;3648;50.614;13.830;2023-01-30T11:03:13;2.60;1.00
7214;DHT22;3648;50.614;13.830;2023-01-30T11:05:46;2.60;1.00
7214;DHT22;3648;50.614;13.830;2023-01-30T11:08:19;2.60;1.00
7214;DHT22;3648;50.614;13.830;2023-01-30T11:10:48;2.60;1.00
7214;DHT22;3648;50.614;13.830;2023-01-30T11:13:17;2.60;1.00
7214;DHT22;3648;50.614;13.830;2023-01-30T11:15:47;2.60;1.00
7214;DHT22;3648;50.614;13.830;2023-01-30T11:18:15;2.60;1.00
7214;DHT22;3648;50.614;13.830;2023-01-30T11:20:45;2.60;1.00
7214;DHT22;3648;50.614;13.830;2023-01-30T11:23:24;2.50;1.00
7214;DHT22;3648;50.614;13.830;2023-01-30T11:25:56;2.60;1.00
7214;DHT22;3648;50.614;13.830;2023-01-30T11:28:24;2.60;1.00
7214;DHT22;3648;50.614;13.830;2023-01-30T11:30:54;2.50;1.00
7214;DHT22;3648;50.614;13.830;2023-01-30T11:33:30;2.50;1.00
7214;DHT22;3648;50.614;13.830;2023-01-30T11:35:58;2.50;1.00
7214;DHT22;3648;50.614;13.830;2023-01-30T11:38:27;2.50;1.00
7214;DHT22;3648;50.614;13.830;2023-01-30T11:41:09;2.50;1.00
7214;DHT22;3648;50.614;13.830;2023-01-30T11:43:42;2.50;1.00
7214;DHT22;3648;50.614;13.830;2023-01-30T11:46:12;2.50;1.00
7214;DHT22;3648;50.614;13.830;2023-01-30T11:48:47;2.40;1.00
7214;DHT22;3648;50.614;13.830;2023-01-30T11:51:16;2.40;1.00
7214;DHT22;3648;50.614;13.830;2023-01-30T11:53:45;2.50;1.00
7214;DHT22;3648;50.614;13.830;2023-01-30T11:56:31;2.50;1.00
7214;DHT22;3648;50.614;13.830;2023-01-30T11:59:02;2.50;1.00
7214;DHT22;3648;50.614;13.830;2023-01-30T12:01:32;2.50;1.00
7214;DHT22;3648;50.614;13.830;2023-01-30T12:04:00;2.50;1.00
7214;DHT22;3648;50.614;13.830;2023-01-30T12:06:29;2.50;1.00
7214;DHT22;3648;50.614;13.830;2023-01-30T12:08:58;2.60;1.00
7214;DHT22;3648;50.614;13.830;2023-01-30T12:11:30;2.60;1.00
7214;DHT22;3648;50.614;13.830;2023-01-30T12:14:15;2.60;1.00
7214;DHT22;3648;50.614;13.830;2023-01-30T12:16:53;2.70;1.00
7214;DHT22;3648;50.614;13.830;2023-01-30T12:19:31;2.70;1.00
7214;DHT22;3648;50.614;13.830;2023-01-30T12:22:07;2.70;1.00
7214;DHT22;3648;50.614;13.830;2023-01-30T12:24:40;2.70;1.00
7214;DHT22;3648;50.614;13.830;2023-01-30T12:27:15;2.70;1.00
7214;DHT22;3648;50.614;13.830;2023-01-30T12:29:56;2.70;1.00
7214;DHT22;3648;50.614;13.830;2023-01-30T12:32:26;2.80;1.00
7214;DHT22;3648;50.614;13.830;2023-01-30T12:34:53;2.80;1.00
7214;DHT22;3648;50.614;13.830;2023-01-30T12:37:31;2.80;1.00
7214;DHT22;3648;50.614;13.830;2023-01-30T12:40:07;2.90;1.00
7214;DHT22;3648;50.614;13.830;2023-01-30T12:45:40;2.90;1.00
7214;DHT22;3648;50.614;13.830;2023-01-30T12:48:33;2.90;1.00
7214;DHT22;3648;50.614;13.830;2023-01-30T12:51:13;2.90;1.00
7214;DHT22;3648;50.614;13.830;2023-01-30T12:53:56;3.00;1.00
7214;DHT22;3648;50.614;13.830;2023-01-30T12:56:43;3.00;1.00
7214;DHT22;3648;50.614;13.830;2023-01-30T12:59:19;3.10;1.00
7214;DHT22;3648;50.614;13.830;2023-01-30T13:01:58;3.20;1.00
7214;DHT22;3648;50.614;13.830;2023-01-30T13:04:35;3.20;1.00
7214;DHT22;3648;50.614;13.830;2023-01-30T13:07:13;3.20;1.00
7214;DHT22;3648;50.614;13.830;2023-01-30T13:09:57;3.20;1.00
7214;DHT22;3648;50.614;13.830;2023-01-30T13:12:34;3.20;1.00
7214;DHT22;3648;50.614;13.830;2023-01-30T13:15:13;3.20;1.00
7214;DHT22;3648;50.614;13.830;2023-01-30T13:17:48;3.30;99.90
7214;DHT22;3648;50.614;13.830;2023-01-30T13:20:26;3.40;99.90
7214;DHT22;3648;50.614;13.830;2023-01-30T13:23:02;3.50;99.90
7214;DHT22;3648;50.614;13.830;2023-01-30T13:25:35;3.60;99.90
7214;DHT22;3648;50.614;13.830;2023-01-30T13:28:10;3.60;99.90
7214;DHT22;3648;50.614;13.830;2023-01-30T13:30:42;3.60;99.90
7214;DHT22;3648;50.614;13.830;2023-01-30T13:33:13;3.60;99.90
7214;DHT22;3648;50.614;13.830;2023-01-30T13:35:44;3.60;99.90
7214;DHT22;3648;50.614;13.830;2023-01-30T13:38:17;3.60;99.90
7214;DHT22;3648;50.614;13.830;2023-01-30T13:40:47;3.50;99.90
7214;DHT22;3648;50.614;13.830;2023-01-30T13:43:19;3.60;99.90
7214;DHT22;3648;50.614;13.830;2023-01-30T13:45:51;3.60;99.90
7214;DHT22;3648;50.614;13.830;2023-01-30T13:48:32;3.60;99.90
7214;DHT22;3648;50.614;13.830;2023-01-30T13:51:20;3.70;99.90
7214;DHT22;3648;50.614;13.830;2023-01-30T13:53:54;3.70;99.90
7214;DHT22;3648;50.614;13.830;2023-01-30T13:56:30;3.70;99.90
7214;DHT22;3648;50.614;13.830;2023-01-30T13:59:03;3.70;99.90
7214;DHT22;3648;50.614;13.830;2023-01-30T14:04:53;3.70;99.90
7214;DHT22;3648;50.614;13.830;2023-01-30T14:07:28;3.70;99.90
7214;DHT22;3648;50.614;13.830;2023-01-30T14:10:20;3.70;99.90
7214;DHT22;3648;50.614;13.830;2023-01-30T14:12:50;3.70;99.90
7214;DHT22;3648;50.614;13.830;2023-01-30T14:15:24;3.70;99.90
7214;DHT22;3648;50.614;13.830;2023-01-30T14:18:02;3.70;99.90
7214;DHT22;3648;50.614;13.830;2023-01-30T14:20:34;3.70;99.90
7214;DHT22;3648;50.614;13.830;2023-01-30T14:23:04;3.70;99.90
7214;DHT22;3648;50.614;13.830;2023-01-30T14:25:46;3.70;99.90
7214;DHT22;3648;50.614;13.830;2023-01-30T14:28:46;3.70;99.90
7214;DHT22;3648;50.614;13.830;2023-01-30T14:31:47;3.60;99.90
7214;DHT22;3648;50.614;13.830;2023-01-30T14:34:48;3.70;99.90
7214;DHT22;3648;50.614;13.830;2023-01-30T14:37:28;3.60;99.90
7214;DHT22;3648;50.614;13.830;2023-01-30T14:39:56;3.60;99.90
7214;DHT22;3648;50.614;13.830;2023-01-30T14:42:25;3.60;99.90
7214;DHT22;3648;50.614;13.830;2023-01-30T14:45:03;3.60;99.90
7214;DHT22;3648;50.614;13.830;2023-01-30T14:47:31;3.60;99.90
7214;DHT22;3648;50.614;13.830;2023-01-30T14:49:59;3.60;99.90
7214;DHT22;3648;50.614;13.830;2023-01-30T14:52:36;3.70;99.90
7214;DHT22;3648;50.614;13.830;2023-01-30T14:55:04;3.70;99.90
7214;DHT22;3648;50.614;13.830;2023-01-30T14:57:32;3.70;99.90
7214;DHT22;3648;50.614;13.830;2023-01-30T15:00:14;3.70;99.90
7214;DHT22;3648;50.614;13.830;2023-01-30T15:02:46;3.70;99.90
7214;DHT22;3648;50.614;13.830;2023-01-30T15:05:16;3.70;99.90
7214;DHT22;3648;50.614;13.830;2023-01-30T15:07:47;3.70;99.90
7214;DHT22;3648;50.614;13.830;2023-01-30T15:13:44;3.70;99.90
7214;DHT22;3648;50.614;13.830;2023-01-30T15:16:38;3.70;99.90
7214;DHT22;3648;50.614;13.830;2023-01-30T15:19:32;3.70;99.90
7214;DHT22;3648;50.614;13.830;2023-01-30T15:22:08;3.60;99.90
7214;DHT22;3648;50.614;13.830;2023-01-30T15:25:11;3.50;99.90
7214;DHT22;3648;50.614;13.830;2023-01-30T15:27:53;3.40;99.90
7214;DHT22;3648;50.614;13.830;2023-01-30T15:30:42;3.30;99.90
7214;DHT22;3648;50.614;13.830;2023-01-30T15:33:17;3.20;99.90
7214;DHT22;3648;50.614;13.830;2023-01-30T15:35:44;3.20;99.90
7214;DHT22;3648;50.614;13.830;2023-01-30T15:38:23;3.10;99.90
7214;DHT22;3648;50.614;13.830;2023-01-30T15:40:53;3.10;99.90
7214;DHT22;3648;50.614;13.830;2023-01-30T15:46:38;3.10;99.90
7214;DHT22;3648;50.614;13.830;2023-01-30T15:52:04;3.10;99.90
7214;DHT22;3648;50.614;13.830;2023-01-30T15:54:33;3.00;99.90
7214;DHT22;3648;50.614;13.830;2023-01-30T15:57:01;3.00;99.90
7214;DHT22;3648;50.614;13.830;2023-01-30T15:59:30;2.90;99.90
7214;DHT22;3648;50.614;13.830;2023-01-30T16:02:04;2.90;99.90
7214;DHT22;3648;50.614;13.830;2023-01-30T16:04:32;2.90;99.90
7214;DHT22;3648;50.614;13.830;2023-01-30T16:07:13;3.00;99.90
7214;DHT22;3648;50.614;13.830;2023-01-30T16:09:40;3.10;99.90
7214;DHT22;3648;50.614;13.830;2023-01-30T16:15:01;3.30;99.90
7214;DHT22;3648;50.614;13.830;2023-01-30T16:17:30;3.50;99.90
7214;DHT22;3648;50.614;13.830;2023-01-30T16:19:59;3.50;99.90
7214;DHT22;3648;50.614;13.830;2023-01-30T16:22:31;3.50;99.90
7214;DHT22;3648;50.614;13.830;2023-01-30T16:25:00;3.50;99.90
7214;DHT22;3648;50.614;13.830;2023-01-30T16:27:31;3.50;99.90
7214;DHT22;3648;50.614;13.830;2023-01-30T16:30:03;3.60;99.90
7214;DHT22;3648;50.614;13.830;2023-01-30T16:32:33;3.60;99.90
7214;DHT22;3648;50.614;13.830;2023-01-30T16:35:15;3.60;99.90
7214;DHT22;3648;50.614;13.830;2023-01-30T16:37:43;3.70;99.90
7214;DHT22;3648;50.614;13.830;2023-01-30T16:40:14;3.50;99.90
7214;DHT22;3648;50.614;13.830;2023-01-30T16:42:53;3.40;99.90
7214;DHT22;3648;50.614;13.830;2023-01-30T16:48:35;3.40;99.90
7214;DHT22;3648;50.614;13.830;2023-01-30T16:51:14;3.40;99.90